^^
Saratoga-Weather Station Historical Data
Daily Summary for July 20, 2021 Units:  Both    English   Metric
Daily Weekly Monthly Yearly Custom
  High: Low: Average:
Temperature: 36.9 °F /  2.7 °C 30.9 °F /  -0.6 °C 33.1 °F /  0.6 °C
Dew Point: 31.6 °F /  -0.2 °C 26.4 °F /  -3.1 °C 28.2 °F /  -2.1 °C
Humidity: 88% 77% 82%
Wind Speed: 2.9mph /  4.7km/h - 0.6mph /  0.9km/h
Wind Gust: 5mph /  8km/h - -
Wind- - SSW
Pressure: 30.4 in /  1027.8 hPa 30.3 in /  1025.7 hPa -
Precipitation: 0 in /  0.0 mm    
Historical Graphs
 
 
Tabular Data for July 20, 2021
Time Temperature Dew Point Pressure Wind Wind Speed Wind Gust Humidity Rainfall Rate (Hourly) solar
00:00 33.1 °F /  0.6 °C 26.6 °F /  -3 °C 30.3in /  1025.7hPa Calm   1mph /  1.6km/h 77% 0in /  0.0mm 0 W/m2
00:05 32.7 °F /  0.4 °C 26.6 °F /  -3 °C 30.3in /  1025.7hPa Calm   2mph /  3.2km/h 78% 0in /  0.0mm 0 W/m2
00:10 32.5 °F /  0.3 °C 26.4 °F /  -3.1 °C 30.3in /  1025.7hPa Calm     78% 0in /  0.0mm 0 W/m2
00:15 32.5 °F /  0.3 °C 26.8 °F /  -2.9 °C 30.3in /  1025.7hPa Calm   2mph /  3.2km/h 79% 0in /  0.0mm 0 W/m2
00:20 32.5 °F /  0.3 °C 26.8 °F /  -2.9 °C 30.3in /  1025.7hPa SE 0.9mph /  1.4km/h 1mph /  1.6km/h 79% 0in /  0.0mm 0 W/m2
00:25 32.5 °F /  0.3 °C 27.1 °F /  -2.7 °C 30.3in /  1025.7hPa Calm   2mph /  3.2km/h 80% 0in /  0.0mm 0 W/m2
00:30 32.5 °F /  0.3 °C 27.1 °F /  -2.7 °C 30.3in /  1025.7hPa Calm   1mph /  1.6km/h 80% 0in /  0.0mm 0 W/m2
00:35 32.5 °F /  0.3 °C 27.1 °F /  -2.7 °C 30.3in /  1025.7hPa Calm   4mph /  6.4km/h 80% 0in /  0.0mm 0 W/m2
00:40 32.5 °F /  0.3 °C 27.1 °F /  -2.7 °C 30.3in /  1025.7hPa Calm     80% 0in /  0.0mm 0 W/m2
00:45 32.7 °F /  0.4 °C 27.3 °F /  -2.6 °C 30.3in /  1025.7hPa SW 0.9mph /  1.4km/h 4mph /  6.4km/h 80% 0in /  0.0mm 0 W/m2
00:50 32.7 °F /  0.4 °C 27.3 °F /  -2.6 °C 30.3in /  1025.7hPa Calm     80% 0in /  0.0mm 0 W/m2
00:55 32.7 °F /  0.4 °C 27.3 °F /  -2.6 °C 30.3in /  1025.7hPa Calm   2mph /  3.2km/h 80% 0in /  0.0mm 0 W/m2
01:00 32.7 °F /  0.4 °C 27.3 °F /  -2.6 °C 30.3in /  1026.1hPa Calm   1mph /  1.6km/h 80% 0in /  0.0mm 0 W/m2
01:05 32.7 °F /  0.4 °C 27 °F /  -2.8 °C 30.3in /  1025.7hPa Calm   2mph /  3.2km/h 79% 0in /  0.0mm 0 W/m2
01:10 32.9 °F /  0.5 °C 27.1 °F /  -2.7 °C 30.3in /  1026.1hPa Calm     79% 0in /  0.0mm 0 W/m2
01:15 33.1 °F /  0.6 °C 27.3 °F /  -2.6 °C 30.3in /  1026.1hPa Calm     79% 0in /  0.0mm 0 W/m2
01:20 33.3 °F /  0.7 °C 27.5 °F /  -2.5 °C 30.3in /  1026.1hPa WSW 2mph /  3.2km/h 3mph /  4.8km/h 79% 0in /  0.0mm 0 W/m2
01:25 33.4 °F /  0.8 °C 27.3 °F /  -2.6 °C 30.3in /  1026.1hPa Calm   1mph /  1.6km/h 78% 0in /  0.0mm 0 W/m2
01:30 33.4 °F /  0.8 °C 27.3 °F /  -2.6 °C 30.3in /  1026.1hPa SW 0.9mph /  1.4km/h 2mph /  3.2km/h 78% 0in /  0.0mm 0 W/m2
01:35 33.6 °F /  0.9 °C 27.5 °F /  -2.5 °C 30.3in /  1026.1hPa Calm   2mph /  3.2km/h 78% 0in /  0.0mm 0 W/m2
01:40 33.6 °F /  0.9 °C 27.5 °F /  -2.5 °C 30.3in /  1026.1hPa Calm   2mph /  3.2km/h 78% 0in /  0.0mm 0 W/m2
01:45 33.6 °F /  0.9 °C 27.5 °F /  -2.5 °C 30.3in /  1026.1hPa Calm   1mph /  1.6km/h 78% 0in /  0.0mm 0 W/m2
01:50 33.6 °F /  0.9 °C 27.5 °F /  -2.5 °C 30.3in /  1026.1hPa WNW 0.9mph /  1.4km/h 2mph /  3.2km/h 78% 0in /  0.0mm 0 W/m2
01:55 33.6 °F /  0.9 °C 27.5 °F /  -2.5 °C 30.3in /  1026.1hPa WSW 0.9mph /  1.4km/h 2mph /  3.2km/h 78% 0in /  0.0mm 0 W/m2
02:00 33.4 °F /  0.8 °C 27.7 °F /  -2.4 °C 30.3in /  1026.1hPa WNW 2mph /  3.2km/h 2mph /  3.2km/h 79% 0in /  0.0mm 0 W/m2
02:05 33.6 °F /  0.9 °C 27.9 °F /  -2.3 °C 30.3in /  1026.1hPa NW 2mph /  3.2km/h 3mph /  4.8km/h 79% 0in /  0.0mm 0 W/m2
02:10 34.2 °F /  1.2 °C 28 °F /  -2.2 °C 30.3in /  1026.1hPa Calm   5mph /  8km/h 78% 0in /  0.0mm 0 W/m2
02:15 34.3 °F /  1.3 °C 27.9 °F /  -2.3 °C 30.3in /  1026.1hPa NW 0.9mph /  1.4km/h 4mph /  6.4km/h 77% 0in /  0.0mm 0 W/m2
02:20 34.5 °F /  1.4 °C 28 °F /  -2.2 °C 30.3in /  1026.1hPa Calm   5mph /  8km/h 77% 0in /  0.0mm 0 W/m2
02:25 34.3 °F /  1.3 °C 27.9 °F /  -2.3 °C 30.3in /  1026.1hPa West 0.9mph /  1.4km/h 2mph /  3.2km/h 77% 0in /  0.0mm 0 W/m2
02:30 34.3 °F /  1.3 °C 27.9 °F /  -2.3 °C 30.3in /  1026.1hPa Calm   2mph /  3.2km/h 77% 0in /  0.0mm 0 W/m2
02:35 34.3 °F /  1.3 °C 28.2 °F /  -2.1 °C 30.3in /  1026.1hPa West 2mph /  3.2km/h 2mph /  3.2km/h 78% 0in /  0.0mm 0 W/m2
02:40 34.2 °F /  1.2 °C 28 °F /  -2.2 °C 30.3in /  1026.1hPa NW 0.9mph /  1.4km/h 3mph /  4.8km/h 78% 0in /  0.0mm 0 W/m2
02:46 34.2 °F /  1.2 °C 28 °F /  -2.2 °C 30.3in /  1026.1hPa NW 2mph /  3.2km/h 2mph /  3.2km/h 78% 0in /  0.0mm 0 W/m2
02:51 34.3 °F /  1.3 °C 28.2 °F /  -2.1 °C 30.3in /  1026.1hPa WNW 0.9mph /  1.4km/h 2mph /  3.2km/h 78% 0in /  0.0mm 0 W/m2
02:56 34.5 °F /  1.4 °C 28.4 °F /  -2 °C 30.3in /  1026.1hPa NNW 2mph /  3.2km/h 4mph /  6.4km/h 78% 0in /  0.0mm 0 W/m2
03:01 34.9 °F /  1.6 °C 28.4 °F /  -2 °C 30.3in /  1026.1hPa WNW 2.9mph /  4.7km/h 3mph /  4.8km/h 77% 0in /  0.0mm 0 W/m2
03:06 34.9 °F /  1.6 °C 28.4 °F /  -2 °C 30.3in /  1026.1hPa Calm   1mph /  1.6km/h 77% 0in /  0.0mm 0 W/m2
03:11 34.9 °F /  1.6 °C 28.4 °F /  -2 °C 30.3in /  1026.1hPa West 0.9mph /  1.4km/h 2mph /  3.2km/h 77% 0in /  0.0mm 0 W/m2
03:16 34.9 °F /  1.6 °C 28.4 °F /  -2 °C 30.3in /  1026.1hPa NW 0.9mph /  1.4km/h 2mph /  3.2km/h 77% 0in /  0.0mm 0 W/m2
03:21 34.9 °F /  1.6 °C 28.8 °F /  -1.8 °C 30.3in /  1026.1hPa NW 2mph /  3.2km/h 3mph /  4.8km/h 78% 0in /  0.0mm 0 W/m2
03:26 34.9 °F /  1.6 °C 28.8 °F /  -1.8 °C 30.3in /  1026.1hPa NNW 0.9mph /  1.4km/h 5mph /  8km/h 78% 0in /  0.0mm 0 W/m2
03:31 34.7 °F /  1.5 °C 28.6 °F /  -1.9 °C 30.3in /  1026.1hPa Calm   1mph /  1.6km/h 78% 0in /  0.0mm 0 W/m2
03:36 34.5 °F /  1.4 °C 28.4 °F /  -2 °C 30.3in /  1026.1hPa Calm   2mph /  3.2km/h 78% 0in /  0.0mm 0 W/m2
03:41 34.3 °F /  1.3 °C 28.2 °F /  -2.1 °C 30.3in /  1026.1hPa ESE 0.9mph /  1.4km/h 1mph /  1.6km/h 78% 0in /  0.0mm 0 W/m2
03:46 34.2 °F /  1.2 °C 28.4 °F /  -2 °C 30.3in /  1026.1hPa Calm   2mph /  3.2km/h 79% 0in /  0.0mm 0 W/m2
03:51 34.2 °F /  1.2 °C 28.4 °F /  -2 °C 30.3in /  1026.1hPa Calm   1mph /  1.6km/h 79% 0in /  0.0mm 0 W/m2
03:56 34.2 °F /  1.2 °C 28.4 °F /  -2 °C 30.3in /  1026.1hPa NNE 0.9mph /  1.4km/h 2mph /  3.2km/h 79% 0in /  0.0mm 0 W/m2
04:01 34.2 °F /  1.2 °C 28.4 °F /  -2 °C 30.3in /  1026.1hPa NNE 0.9mph /  1.4km/h 2mph /  3.2km/h 79% 0in /  0.0mm 0 W/m2
04:06 34 °F /  1.1 °C 28.2 °F /  -2.1 °C 30.3in /  1026.1hPa Calm   2mph /  3.2km/h 79% 0in /  0.0mm 0 W/m2
04:11 33.8 °F /  1 °C 28.2 °F /  -2.1 °C 30.3in /  1026.1hPa Calm   2mph /  3.2km/h 80% 0in /  0.0mm 0 W/m2
04:16 33.6 °F /  0.9 °C 28 °F /  -2.2 °C 30.3in /  1026.1hPa Calm   1mph /  1.6km/h 80% 0in /  0.0mm 0 W/m2
04:21 33.3 °F /  0.7 °C 28 °F /  -2.2 °C 30.3in /  1026.1hPa ENE 0.9mph /  1.4km/h 1mph /  1.6km/h 81% 0in /  0.0mm 0 W/m2
04:26 33.1 °F /  0.6 °C 27.9 °F /  -2.3 °C 30.3in /  1026.1hPa Calm   1mph /  1.6km/h 81% 0in /  0.0mm 0 W/m2
04:31 33.1 °F /  0.6 °C 27.9 °F /  -2.3 °C 30.3in /  1026.1hPa Calm   2mph /  3.2km/h 81% 0in /  0.0mm 0 W/m2
04:36 32.7 °F /  0.4 °C 27.9 °F /  -2.3 °C 30.3in /  1025.7hPa Calm   2mph /  3.2km/h 82% 0in /  0.0mm 0 W/m2
04:41 32.5 °F /  0.3 °C 27.7 °F /  -2.4 °C 30.3in /  1025.7hPa ESE 0.9mph /  1.4km/h 1mph /  1.6km/h 82% 0in /  0.0mm 0 W/m2
04:46 32.4 °F /  0.2 °C 27.9 °F /  -2.3 °C 30.3in /  1025.7hPa Calm   2mph /  3.2km/h 83% 0in /  0.0mm 0 W/m2
04:51 32.2 °F /  0.1 °C 27.9 °F /  -2.3 °C 30.3in /  1025.7hPa Calm   1mph /  1.6km/h 84% 0in /  0.0mm 0 W/m2
04:56 31.8 °F /  -0.1 °C 27.5 °F /  -2.5 °C 30.3in /  1025.7hPa Calm     84% 0in /  0.0mm 0 W/m2
05:01 31.6 °F /  -0.2 °C 27.7 °F /  -2.4 °C 30.3in /  1026.1hPa Calm     85% 0in /  0.0mm 0 W/m2
05:06 31.5 °F /  -0.3 °C 27.5 °F /  -2.5 °C 30.3in /  1026.1hPa Calm   1mph /  1.6km/h 85% 0in /  0.0mm 0 W/m2
05:11 31.5 °F /  -0.3 °C 27.5 °F /  -2.5 °C 30.3in /  1026.1hPa Calm     85% 0in /  0.0mm 0 W/m2
05:16 31.5 °F /  -0.3 °C 27.7 °F /  -2.4 °C 30.3in /  1026.4hPa Calm   1mph /  1.6km/h 86% 0in /  0.0mm 0 W/m2
05:21 31.5 °F /  -0.3 °C 27.7 °F /  -2.4 °C 30.3in /  1026.4hPa ESE 2mph /  3.2km/h 2mph /  3.2km/h 86% 0in /  0.0mm 0 W/m2
05:26 31.5 °F /  -0.3 °C 27.7 °F /  -2.4 °C 30.3in /  1026.4hPa ESE 0.9mph /  1.4km/h 2mph /  3.2km/h 86% 0in /  0.0mm 0 W/m2
05:31 31.5 °F /  -0.3 °C 27.7 °F /  -2.4 °C 30.3in /  1026.4hPa ESE 0.9mph /  1.4km/h 2mph /  3.2km/h 86% 0in /  0.0mm 0 W/m2
05:36 31.3 °F /  -0.4 °C 27.5 °F /  -2.5 °C 30.3in /  1026.4hPa ESE 0.9mph /  1.4km/h 1mph /  1.6km/h 86% 0in /  0.0mm 0 W/m2
05:41 31.1 °F /  -0.5 °C 27.3 °F /  -2.6 °C 30.3in /  1026.4hPa Calm   1mph /  1.6km/h 86% 0in /  0.0mm 0 W/m2
05:46 30.9 °F /  -0.6 °C 27.5 °F /  -2.5 °C 30.3in /  1026.4hPa ESE 0.9mph /  1.4km/h 1mph /  1.6km/h 87% 0in /  0.0mm 0 W/m2
05:51 31.1 °F /  -0.5 °C 27.7 °F /  -2.4 °C 30.3in /  1026.4hPa ESE 0.9mph /  1.4km/h 1mph /  1.6km/h 87% 0in /  0.0mm 0 W/m2
05:56 31.5 °F /  -0.3 °C 28.4 °F /  -2 °C 30.3in /  1026.8hPa ESE 0.9mph /  1.4km/h 2mph /  3.2km/h 88% 0in /  0.0mm 0 W/m2
06:01 31.6 °F /  -0.2 °C 28.2 °F /  -2.1 °C 30.3in /  1026.8hPa Calm   1mph /  1.6km/h 87% 0in /  0.0mm 0 W/m2
06:06 31.6 °F /  -0.2 °C 27.9 °F /  -2.3 °C 30.3in /  1026.8hPa ESE 0.9mph /  1.4km/h 2mph /  3.2km/h 86% 0in /  0.0mm 0 W/m2
06:11 31.6 °F /  -0.2 °C 28.2 °F /  -2.1 °C 30.3in /  1026.8hPa ESE 0.9mph /  1.4km/h 1mph /  1.6km/h 87% 0in /  0.0mm 0 W/m2
06:16 31.6 °F /  -0.2 °C 28.2 °F /  -2.1 °C 30.3in /  1026.8hPa Calm   2mph /  3.2km/h 87% 0in /  0.0mm 0 W/m2
06:22 31.6 °F /  -0.2 °C 27.9 °F /  -2.3 °C 30.3in /  1026.8hPa ESE 0.9mph /  1.4km/h 2mph /  3.2km/h 86% 0in /  0.0mm 0 W/m2
06:27 31.6 °F /  -0.2 °C 27.9 °F /  -2.3 °C 30.3in /  1026.8hPa Calm     86% 0in /  0.0mm 0 W/m2
06:32 31.6 °F /  -0.2 °C 28.2 °F /  -2.1 °C 30.3in /  1026.8hPa Calm   2mph /  3.2km/h 87% 0in /  0.0mm 0 W/m2
06:37 31.8 °F /  -0.1 °C 28.4 °F /  -2 °C 30.3in /  1026.4hPa Calm   1mph /  1.6km/h 87% 0in /  0.0mm 0 W/m2
06:42 31.8 °F /  -0.1 °C 28.4 °F /  -2 °C 30.3in /  1026.4hPa Calm   1mph /  1.6km/h 87% 0in /  0.0mm 5 W/m2
06:47 31.6 °F /  -0.2 °C 28.2 °F /  -2.1 °C 30.3in /  1026.8hPa Calm     87% 0in /  0.0mm 7 W/m2
06:52 31.6 °F /  -0.2 °C 28.2 °F /  -2.1 °C 30.3in /  1026.8hPa Calm   1mph /  1.6km/h 87% 0in /  0.0mm 9 W/m2
06:57 31.5 °F /  -0.3 °C 28 °F /  -2.2 °C 30.3in /  1026.8hPa Calm   1mph /  1.6km/h 87% 0in /  0.0mm 12 W/m2
07:02 31.6 °F /  -0.2 °C 28.2 °F /  -2.1 °C 30.3in /  1026.4hPa Calm   1mph /  1.6km/h 87% 0in /  0.0mm 18 W/m2
07:07 31.6 °F /  -0.2 °C 28.2 °F /  -2.1 °C 30.3in /  1026.8hPa Calm   1mph /  1.6km/h 87% 0in /  0.0mm 18 W/m2
07:12 31.6 °F /  -0.2 °C 28.2 °F /  -2.1 °C 30.3in /  1026.8hPa Calm     87% 0in /  0.0mm 21 W/m2
07:17 31.6 °F /  -0.2 °C 28.2 °F /  -2.1 °C 30.3in /  1026.8hPa Calm     87% 0in /  0.0mm 21 W/m2
07:22 31.6 °F /  -0.2 °C 28.2 °F /  -2.1 °C 30.3in /  1026.8hPa Calm     87% 0in /  0.0mm 28 W/m2
07:27 31.6 °F /  -0.2 °C 28.2 °F /  -2.1 °C 30.3in /  1026.8hPa Calm     87% 0in /  0.0mm 35 W/m2
07:32 31.6 °F /  -0.2 °C 28.2 °F /  -2.1 °C 30.3in /  1026.8hPa Calm   1mph /  1.6km/h 87% 0in /  0.0mm 35 W/m2
07:37 31.8 °F /  -0.1 °C 28.8 °F /  -1.8 °C 30.3in /  1027.1hPa WSW 0.9mph /  1.4km/h 1mph /  1.6km/h 88% 0in /  0.0mm 40 W/m2
07:42 32 °F /  0 °C 28.9 °F /  -1.7 °C 30.3in /  1026.8hPa Calm     88% 0in /  0.0mm 56 W/m2
07:47 32.2 °F /  0.1 °C 28.9 °F /  -1.7 °C 30.3in /  1027.1hPa Calm     88% 0in /  0.0mm 72 W/m2
07:52 32.5 °F /  0.3 °C 29.3 °F /  -1.5 °C 30.3in /  1027.1hPa Calm     88% 0in /  0.0mm 83 W/m2
07:57 32.9 °F /  0.5 °C 29.5 °F /  -1.4 °C 30.3in /  1027.1hPa ESE 2mph /  3.2km/h 2mph /  3.2km/h 87% 0in /  0.0mm 91 W/m2
08:02 33.4 °F /  0.8 °C 30 °F /  -1.1 °C 30.3in /  1027.1hPa Calm   2mph /  3.2km/h 87% 0in /  0.0mm 128 W/m2
08:07 34 °F /  1.1 °C 30.2 °F /  -1 °C 30.3in /  1027.1hPa Calm   1mph /  1.6km/h 86% 0in /  0.0mm 127 W/m2
08:12 34.3 °F /  1.3 °C 30.4 °F /  -0.9 °C 30.3in /  1027.1hPa North 2mph /  3.2km/h 3mph /  4.8km/h 85% 0in /  0.0mm 77 W/m2
08:17 34.7 °F /  1.5 °C 30.4 °F /  -0.9 °C 30.3in /  1027.4hPa NE 0.9mph /  1.4km/h 3mph /  4.8km/h 84% 0in /  0.0mm 88 W/m2
08:22 35.1 °F /  1.7 °C 30.4 °F /  -0.9 °C 30.3in /  1027.4hPa Calm   2mph /  3.2km/h 83% 0in /  0.0mm 232 W/m2
08:27 35.2 °F /  1.8 °C 30.4 °F /  -0.9 °C 30.3in /  1027.4hPa North 0.9mph /  1.4km/h 4mph /  6.4km/h 82% 0in /  0.0mm 262 W/m2
08:32 35.8 °F /  2.1 °C 30.7 °F /  -0.7 °C 30.3in /  1027.4hPa NNW 2mph /  3.2km/h 3mph /  4.8km/h 82% 0in /  0.0mm 267 W/m2
08:37 36 °F /  2.2 °C 30.9 °F /  -0.6 °C 30.4in /  1027.8hPa North 2mph /  3.2km/h 4mph /  6.4km/h 82% 0in /  0.0mm 315 W/m2
08:42 36.3 °F /  2.4 °C 31.1 °F /  -0.5 °C 30.4in /  1027.8hPa NNW 2.9mph /  4.7km/h 4mph /  6.4km/h 81% 0in /  0.0mm 308 W/m2
08:47 36.9 °F /  2.7 °C 31.6 °F /  -0.2 °C 30.4in /  1027.8hPa West 2.9mph /  4.7km/h 3mph /  4.8km/h 81% 0in /  0.0mm 373 W/m2
Juneau County Weather
Compliments of Weather Underground - 4 mb